createdAt,value
2022-11-24T00:07:49.988Z,100.0
2022-11-24T00:27:49.957Z,100.0
2022-11-24T00:47:49.948Z,100.0
2022-11-24T01:07:49.946Z,100.0
2022-11-24T01:27:49.914Z,100.0
2022-11-24T01:47:49.921Z,100.0
2022-11-24T02:07:49.895Z,100.0
2022-11-24T02:27:49.865Z,100.0
2022-11-24T02:47:49.863Z,100.0
2022-11-24T03:07:49.835Z,99.9
2022-11-24T03:27:49.850Z,100.0
2022-11-24T03:47:49.816Z,100.0
2022-11-24T04:07:49.793Z,99.9
2022-11-24T04:27:49.778Z,100.0
2022-11-24T04:47:49.804Z,100.0
2022-11-24T05:07:49.766Z,100.0
2022-11-24T05:27:49.736Z,100.0
2022-11-24T05:47:49.728Z,100.0
2022-11-24T06:07:49.709Z,100.0
2022-11-24T06:27:49.701Z,100.0
2022-11-24T06:47:49.674Z,99.8
2022-11-24T07:07:49.654Z,99.7
2022-11-24T07:27:49.657Z,99.8
2022-11-24T07:47:49.631Z,99.5
2022-11-24T08:07:49.631Z,99.4
2022-11-24T08:27:49.598Z,99.4
2022-11-24T08:47:49.594Z,99.1
2022-11-24T09:07:49.564Z,98.7
2022-11-24T09:27:49.559Z,98.6
2022-11-24T09:47:49.536Z,99.0
2022-11-24T10:07:49.518Z,97.8
2022-11-24T10:27:49.538Z,97.1
2022-11-24T10:47:49.500Z,97.5
2022-11-24T11:07:49.478Z,99.0
2022-11-24T11:27:49.520Z,99.7
2022-11-24T11:47:49.441Z,99.6
2022-11-24T12:07:49.456Z,99.6
2022-11-24T12:27:49.504Z,99.9
2022-11-24T12:47:49.450Z,99.3
2022-11-24T13:07:49.547Z,98.6
2022-11-24T13:27:49.476Z,98.8
2022-11-24T13:47:49.472Z,99.4
2022-11-24T14:07:49.395Z,98.3
2022-11-24T14:27:49.460Z,98.7
2022-11-24T14:47:49.446Z,99.0
2022-11-24T15:07:49.348Z,99.0
2022-11-24T15:27:49.394Z,98.5
2022-11-24T15:47:49.439Z,97.9
2022-11-24T16:07:49.223Z,98.4
2022-11-24T16:27:49.290Z,99.7
2022-11-24T16:47:49.290Z,99.2
2022-11-24T17:07:49.327Z,99.2
2022-11-24T17:27:49.139Z,99.3
2022-11-24T17:47:49.145Z,99.0
2022-11-24T18:07:49.379Z,99.3
2022-11-24T18:27:49.255Z,99.5
2022-11-24T18:47:49.113Z,99.5
2022-11-24T19:07:49.255Z,99.0
2022-11-24T19:27:49.069Z,99.8
2022-11-24T19:47:49.112Z,100.0
2022-11-24T20:07:49.038Z,99.6
2022-11-24T20:27:49.048Z,99.3
2022-11-24T20:47:49.146Z,98.9
2022-11-24T21:07:48.981Z,98.9
2022-11-24T21:27:48.989Z,99.5
2022-11-24T21:47:48.962Z,98.6
2022-11-24T22:07:48.938Z,98.8
2022-11-24T22:27:48.945Z,98.2
2022-11-24T22:47:48.959Z,99.1
2022-11-24T23:07:48.939Z,98.9
2022-11-24T23:27:48.901Z,98.8
2022-11-24T23:47:48.883Z,98.6
